Terminal Aerodrome Forecast
Issued by NWS

Home | Current Version | Previous Version | Text Only | Print | Product List | Glossary On
Versions: 1 2 3 4 5 6 7 8 9 10 11 12 13 14 15 16 17 18 19
000
FTUS43 KAPX 201100 AAA
TAFMBL
TAF AMD
KMBL 201148Z 2012/2112 24006KT 4SM BR SCT025 BKN060
     FM201400 34007KT P6SM BKN030
     FM201900 35009KT P6SM OVC035
     FM210100 35009KT P6SM OVC025
      AMD LTD TO CLD VIS AND WIND=

USA.gov is the U.S. government's official web portal to all federal, state and local government web resources and services.